createdAt,value
2023-04-28T00:01:12.277Z,12.33
2023-04-28T00:03:39.050Z,12.20
2023-04-28T00:06:06.182Z,12.27
2023-04-28T00:08:32.911Z,13.17
2023-04-28T00:10:59.475Z,13.63
2023-04-28T00:13:26.628Z,13.83
2023-04-28T00:15:53.472Z,12.90
2023-04-28T00:18:20.508Z,14.33
2023-04-28T00:20:47.360Z,14.33
2023-04-28T00:23:14.376Z,14.00
2023-04-28T00:25:40.915Z,14.67
2023-04-28T00:28:07.456Z,13.10
2023-04-28T00:30:34.027Z,13.13
2023-04-28T00:33:00.663Z,13.30
2023-04-28T00:35:27.294Z,12.20
2023-04-28T00:37:53.835Z,13.73
2023-04-28T00:40:21.203Z,13.40
2023-04-28T00:42:47.844Z,16.87
2023-04-28T00:45:14.476Z,16.00
2023-04-28T00:47:41.244Z,16.13
2023-04-28T00:50:08.031Z,15.83
2023-04-28T00:52:34.571Z,15.37
2023-04-28T00:55:01.170Z,15.67
2023-04-28T00:57:27.699Z,15.03
2023-04-28T00:59:54.192Z,14.63
2023-04-28T01:02:20.903Z,15.07
2023-04-28T01:04:47.547Z,13.43
2023-04-28T01:07:14.126Z,14.63
2023-04-28T01:09:40.774Z,15.20
2023-04-28T01:12:07.343Z,16.30
2023-04-28T01:14:34.009Z,15.27
2023-04-28T01:17:00.691Z,15.07
2023-04-28T01:19:28.038Z,16.77
2023-04-28T01:21:54.648Z,16.97
2023-04-28T01:24:21.190Z,18.63
2023-04-28T01:26:47.717Z,18.27
2023-04-28T01:29:14.495Z,17.93
2023-04-28T01:31:41.297Z,17.20
2023-04-28T01:34:08.074Z,18.40
2023-04-28T01:36:36.822Z,18.57
2023-04-28T01:39:04.636Z,17.17
2023-04-28T01:41:31.250Z,18.27
2023-04-28T01:43:57.821Z,18.53
2023-04-28T01:46:24.412Z,19.27
2023-04-28T01:48:50.978Z,19.70
2023-04-28T01:51:17.680Z,20.77
2023-04-28T01:53:44.219Z,21.67
2023-04-28T01:56:10.955Z,20.13
2023-04-28T01:58:37.493Z,21.67
2023-04-28T02:01:04.264Z,23.47
2023-04-28T02:03:31.118Z,24.87
2023-04-28T02:05:58.048Z,26.47
2023-04-28T02:08:24.625Z,25.83
2023-04-28T02:10:51.119Z,26.57
2023-04-28T02:13:17.668Z,26.30
2023-04-28T02:15:44.289Z,26.50
2023-04-28T02:18:11.141Z,26.23
2023-04-28T02:20:37.653Z,26.57
2023-04-28T02:23:04.328Z,28.93
2023-04-28T02:25:30.975Z,28.80
2023-04-28T02:27:57.589Z,28.37
2023-04-28T02:30:24.249Z,26.50
2023-04-28T02:32:50.841Z,26.53
2023-04-28T02:35:17.453Z,28.63
2023-04-28T02:37:43.973Z,29.23
2023-04-28T02:40:10.694Z,27.30
2023-04-28T02:42:37.187Z,27.70
2023-04-28T02:45:03.833Z,27.87
2023-04-28T02:47:30.541Z,26.23
2023-04-28T02:49:57.073Z,27.07
2023-04-28T02:52:23.531Z,27.20
2023-04-28T02:54:54.628Z,27.70
2023-04-28T02:57:21.395Z,27.47
2023-04-28T02:59:47.961Z,27.93
2023-04-28T03:02:14.888Z,31.30
2023-04-28T03:04:41.728Z,32.07
2023-04-28T03:07:08.393Z,32.57
2023-04-28T03:09:35.001Z,35.77
2023-04-28T03:12:02.766Z,36.53
2023-04-28T03:14:29.257Z,36.10
2023-04-28T03:16:56.372Z,38.17
2023-04-28T03:19:22.871Z,36.40
2023-04-28T03:21:49.412Z,37.60
2023-04-28T03:24:16.166Z,36.37
2023-04-28T03:26:42.913Z,37.03
2023-04-28T03:29:09.434Z,36.37
2023-04-28T03:31:35.987Z,36.53
2023-04-28T03:34:03.468Z,34.67
2023-04-28T03:36:30.045Z,37.20
2023-04-28T03:38:56.740Z,35.37
2023-04-28T03:41:23.221Z,33.83
2023-04-28T03:43:49.834Z,35.00
2023-04-28T03:46:16.414Z,34.27
2023-04-28T03:48:42.969Z,35.67
2023-04-28T03:51:09.421Z,33.23
2023-04-28T03:53:35.940Z,34.30
2023-04-28T03:56:02.443Z,35.77
2023-04-28T03:58:29.256Z,31.70
2023-04-28T04:00:55.780Z,33.67
2023-04-28T04:03:26.512Z,32.70
2023-04-28T04:05:53.943Z,32.30
2023-04-28T04:08:20.518Z,32.33
2023-04-28T04:10:47.049Z,29.20
2023-04-28T04:13:13.560Z,32.13
2023-04-28T04:15:40.160Z,29.83
2023-04-28T04:18:07.022Z,29.93
2023-04-28T04:20:33.697Z,29.00
2023-04-28T04:23:01.642Z,30.43
2023-04-28T04:25:28.417Z,28.03
2023-04-28T04:27:55.037Z,27.60
2023-04-28T04:30:21.627Z,29.13
2023-04-28T04:32:48.255Z,27.50
2023-04-28T04:35:14.843Z,28.87
2023-04-28T04:37:41.377Z,27.27
2023-04-28T04:40:08.725Z,25.67
2023-04-28T04:42:35.263Z,24.87
2023-04-28T04:45:01.810Z,25.63
2023-04-28T04:47:28.586Z,22.90
2023-04-28T04:49:55.184Z,22.63
2023-04-28T04:52:21.764Z,23.73
2023-04-28T04:54:48.282Z,23.50
2023-04-28T04:57:14.921Z,21.60
2023-04-28T04:59:41.643Z,20.23
2023-04-28T05:02:08.378Z,19.93
2023-04-28T05:04:35.279Z,18.73
2023-04-28T05:07:01.931Z,17.30
2023-04-28T05:09:30.018Z,18.17
2023-04-28T05:11:56.849Z,16.83
2023-04-28T05:14:23.503Z,16.47
2023-04-28T05:16:50.227Z,15.93
2023-04-28T05:19:16.904Z,16.17
2023-04-28T05:21:43.633Z,15.87
2023-04-28T05:24:10.181Z,15.23
2023-04-28T05:26:36.900Z,15.23
2023-04-28T05:29:03.614Z,15.40
2023-04-28T05:31:30.205Z,15.27
2023-04-28T05:33:56.803Z,15.33
2023-04-28T05:36:23.322Z,14.70
2023-04-28T05:38:49.804Z,14.70
2023-04-28T05:41:16.565Z,14.17
2023-04-28T05:43:43.088Z,14.20
2023-04-28T05:46:18.252Z,14.03
2023-04-28T05:48:48.723Z,13.27
2023-04-28T05:51:15.327Z,15.13
2023-04-28T05:53:41.980Z,13.83
2023-04-28T05:56:08.594Z,13.90
2023-04-28T05:58:35.097Z,14.03
2023-04-28T06:01:01.635Z,13.73
2023-04-28T06:03:28.431Z,13.47
2023-04-28T06:05:55.204Z,12.23
2023-04-28T06:08:21.854Z,12.30
2023-04-28T06:10:48.429Z,11.10
2023-04-28T06:13:15.121Z,11.63
2023-04-28T06:15:41.660Z,11.93
2023-04-28T06:18:09.850Z,12.67
2023-04-28T06:20:36.480Z,13.37
2023-04-28T06:23:03.577Z,12.60
2023-04-28T06:25:30.060Z,12.40
2023-04-28T06:27:56.718Z,12.60
2023-04-28T06:30:23.471Z,12.33
2023-04-28T06:32:50.086Z,11.57
2023-04-28T06:35:16.702Z,12.00
2023-04-28T06:37:43.429Z,11.33
2023-04-28T06:40:10.438Z,11.27
2023-04-28T06:42:36.956Z,11.60
2023-04-28T06:45:03.640Z,12.10
2023-04-28T06:47:30.279Z,10.20
2023-04-28T06:49:57.512Z,11.37
2023-04-28T06:52:33.046Z,10.83
2023-04-28T06:55:03.574Z,11.13
2023-04-28T06:57:30.056Z,10.63
2023-04-28T06:59:56.844Z,10.03
2023-04-28T07:02:23.578Z,9.50
2023-04-28T07:04:50.279Z,9.97
2023-04-28T07:07:16.872Z,9.67
2023-04-28T07:09:43.532Z,9.97
2023-04-28T07:12:10.872Z,8.57
2023-04-28T07:14:37.507Z,8.63
2023-04-28T07:17:05.593Z,8.17
2023-04-28T07:19:32.153Z,8.47
2023-04-28T07:21:58.690Z,7.30
2023-04-28T07:24:25.653Z,7.70
2023-04-28T07:26:52.410Z,6.77
2023-04-28T07:29:19.334Z,7.13
2023-04-28T07:31:46.062Z,6.27
2023-04-28T07:34:12.668Z,5.80
2023-04-28T07:36:39.289Z,7.07
2023-04-28T07:39:06.030Z,7.50
2023-04-28T07:41:36.536Z,5.90
2023-04-28T07:44:05.150Z,5.93
2023-04-28T07:46:31.886Z,5.57
2023-04-28T07:48:58.964Z,3.88
2023-04-28T07:51:25.628Z,4.03
2023-04-28T07:53:52.389Z,4.22
2023-04-28T07:56:19.102Z,4.30
2023-04-28T07:58:46.083Z,4.97
2023-04-28T08:01:12.731Z,4.97
2023-04-28T08:03:39.564Z,4.07
2023-04-28T08:06:07.029Z,3.83
2023-04-28T08:08:33.905Z,4.13
2023-04-28T08:11:00.526Z,3.27
2023-04-28T08:13:28.627Z,4.05
2023-04-28T08:15:56.878Z,4.85
2023-04-28T08:18:23.650Z,4.40
2023-04-28T08:20:50.434Z,3.60
2023-04-28T08:23:17.080Z,3.00
2023-04-28T08:25:43.657Z,3.10
2023-04-28T08:28:10.381Z,3.15
2023-04-28T08:30:38.896Z,2.25
2023-04-28T08:33:07.337Z,3.10
2023-04-28T08:35:34.697Z,2.40
2023-04-28T08:38:02.202Z,2.38
2023-04-28T08:40:31.457Z,2.47
2023-04-28T08:42:58.654Z,2.40
2023-04-28T08:45:28.307Z,3.38
2023-04-28T08:47:55.085Z,2.05
2023-04-28T08:50:22.623Z,2.67
2023-04-28T08:52:49.243Z,2.80
2023-04-28T08:55:17.193Z,2.80
2023-04-28T08:57:44.472Z,3.13
2023-04-28T09:00:11.367Z,2.88
2023-04-28T09:02:38.370Z,3.85
2023-04-28T09:05:07.371Z,4.03
2023-04-28T09:07:34.479Z,3.28
2023-04-28T09:10:17.952Z,4.38
2023-04-28T09:12:45.560Z,4.13
2023-04-28T09:15:16.277Z,4.35
2023-04-28T09:17:50.220Z,3.63
2023-04-28T09:20:20.563Z,4.53
2023-04-28T09:22:47.143Z,4.82
2023-04-28T09:25:13.933Z,4.63
2023-04-28T09:27:40.488Z,4.50
2023-04-28T09:30:07.424Z,4.43
2023-04-28T09:32:34.085Z,3.35
2023-04-28T09:35:01.874Z,3.83
2023-04-28T09:37:31.564Z,3.47
2023-04-28T09:39:58.736Z,4.10
2023-04-28T09:42:32.040Z,4.28
2023-04-28T09:44:58.909Z,3.55
2023-04-28T09:47:25.689Z,3.70
2023-04-28T09:50:00.014Z,3.95
2023-04-28T09:52:27.023Z,3.20
2023-04-28T09:54:54.314Z,2.90
2023-04-28T09:57:21.589Z,3.22
2023-04-28T09:59:48.890Z,3.13
2023-04-28T10:02:41.119Z,3.17
2023-04-28T10:05:03.668Z,3.08
2023-04-28T10:07:35.196Z,3.10
2023-04-28T10:10:02.997Z,2.63
2023-04-28T10:12:31.653Z,2.90
2023-04-28T10:14:58.302Z,2.85
2023-04-28T10:17:29.894Z,3.55
2023-04-28T10:19:56.674Z,3.53
2023-04-28T10:22:29.659Z,3.05
2023-04-28T10:25:02.824Z,2.67
2023-04-28T10:27:32.487Z,2.90
2023-04-28T10:30:23.032Z,3.88
2023-04-28T10:33:12.298Z,2.40
2023-04-28T10:35:40.727Z,2.88
2023-04-28T10:38:22.021Z,2.63
2023-04-28T10:40:49.043Z,3.28
2023-04-28T10:43:15.610Z,3.40
2023-04-28T10:45:56.390Z,2.85
2023-04-28T10:48:24.133Z,2.78
2023-04-28T10:51:02.855Z,3.28
2023-04-28T10:53:44.771Z,2.28
2023-04-28T10:56:11.769Z,4.00
2023-04-28T10:58:46.393Z,3.20
2023-04-28T11:01:19.584Z,2.60
2023-04-28T11:03:46.857Z,3.17
2023-04-28T11:06:26.983Z,2.28
2023-04-28T11:08:55.738Z,2.72
2023-04-28T11:11:24.591Z,2.50
2023-04-28T11:13:51.336Z,2.00
2023-04-28T11:16:21.778Z,2.55
2023-04-28T11:18:55.221Z,2.10
2023-04-28T11:21:22.871Z,2.42
2023-04-28T11:23:49.638Z,2.58
2023-04-28T11:26:16.601Z,2.22
2023-04-28T11:28:47.297Z,1.40
2023-04-28T11:31:14.435Z,1.60
2023-04-28T11:33:41.534Z,1.67
2023-04-28T11:36:08.247Z,1.40
2023-04-28T11:38:44.549Z,1.63
2023-04-28T11:41:11.444Z,1.80
2023-04-28T11:43:46.946Z,2.08
2023-04-28T11:46:18.214Z,1.52
2023-04-28T11:48:45.092Z,1.55
2023-04-28T11:51:28.048Z,1.35
2023-04-28T11:53:55.118Z,1.67
2023-04-28T11:56:21.700Z,1.52
2023-04-28T11:59:00.705Z,1.42
2023-04-28T12:01:28.317Z,1.40
2023-04-28T12:03:55.684Z,1.15
2023-04-28T12:06:22.550Z,1.40
2023-04-28T12:08:49.351Z,1.30
2023-04-28T12:11:19.943Z,1.38
2023-04-28T12:14:09.241Z,1.42
2023-04-28T12:16:40.142Z,1.40
2023-04-28T12:19:10.174Z,1.30
2023-04-28T12:21:38.570Z,1.23
2023-04-28T12:24:18.207Z,1.15
2023-04-28T12:26:44.772Z,0.90
2023-04-28T12:29:31.719Z,1.50
2023-04-28T12:31:58.721Z,1.30
2023-04-28T12:34:25.718Z,1.30
2023-04-28T12:36:52.412Z,1.50
2023-04-28T12:39:20.228Z,1.67
2023-04-28T12:41:46.940Z,1.38
2023-04-28T12:44:13.560Z,1.10
2023-04-28T12:46:40.240Z,1.33
2023-04-28T12:49:07.689Z,1.30
2023-04-28T12:51:37.770Z,1.50
2023-04-28T12:54:05.731Z,0.95
2023-04-28T12:56:32.509Z,1.10
2023-04-28T12:58:59.049Z,1.20
2023-04-28T13:01:25.728Z,0.90
2023-04-28T13:03:53.982Z,0.98
2023-04-28T13:06:22.147Z,1.48
2023-04-28T13:08:49.188Z,1.40
2023-04-28T13:11:22.853Z,1.42
2023-04-28T13:13:50.014Z,1.60
2023-04-28T13:16:16.773Z,1.30
2023-04-28T13:18:43.538Z,1.55
2023-04-28T13:21:10.282Z,1.10
2023-04-28T13:23:37.186Z,1.10
2023-04-28T13:26:04.546Z,1.30
2023-04-28T13:28:31.573Z,1.65
2023-04-28T13:30:58.241Z,1.23
2023-04-28T13:33:31.170Z,1.30
2023-04-28T13:35:58.580Z,1.10
2023-04-28T13:38:26.257Z,1.30
2023-04-28T13:40:53.290Z,1.73
2023-04-28T13:43:19.942Z,1.20
2023-04-28T13:45:46.641Z,1.63
2023-04-28T13:48:13.348Z,1.20
2023-04-28T13:50:40.039Z,1.40
2023-04-28T13:53:06.909Z,1.67
2023-04-28T13:55:33.574Z,1.42
2023-04-28T13:58:05.040Z,1.10
2023-04-28T14:00:33.082Z,1.23
2023-04-28T14:03:00.393Z,1.25
2023-04-28T14:05:29.738Z,1.10
2023-04-28T14:07:56.543Z,1.10
2023-04-28T14:10:23.237Z,1.13
2023-04-28T14:12:51.010Z,1.40
2023-04-28T14:15:18.236Z,1.35
2023-04-28T14:17:44.946Z,1.60
2023-04-28T14:20:11.800Z,1.52
2023-04-28T14:22:38.969Z,1.50
2023-04-28T14:25:05.833Z,1.30
2023-04-28T14:27:33.542Z,1.48
2023-04-28T14:30:00.852Z,1.60
2023-04-28T14:32:27.608Z,1.77
2023-04-28T14:34:54.270Z,1.67
2023-04-28T14:37:21.142Z,1.42
2023-04-28T14:39:48.318Z,1.15
2023-04-28T14:42:15.166Z,1.50
2023-04-28T14:44:41.794Z,1.50
2023-04-28T14:47:08.759Z,1.38
2023-04-28T14:49:35.514Z,1.35
2023-04-28T14:52:02.747Z,1.38
2023-04-28T14:54:29.232Z,1.73
2023-04-28T14:56:55.893Z,1.30
2023-04-28T14:59:23.068Z,1.20
2023-04-28T15:01:51.725Z,1.20
2023-04-28T15:04:18.704Z,1.10
2023-04-28T15:06:45.699Z,1.55
2023-04-28T15:09:15.209Z,1.58
2023-04-28T15:11:42.447Z,1.30
2023-04-28T15:14:09.049Z,1.27
2023-04-28T15:16:35.885Z,1.30
2023-04-28T15:19:02.758Z,1.20
2023-04-28T15:21:29.937Z,1.10
2023-04-28T15:23:56.869Z,1.15
2023-04-28T15:26:23.869Z,1.52
2023-04-28T15:28:50.629Z,1.10
2023-04-28T15:31:17.437Z,1.38
2023-04-28T15:33:44.344Z,1.17
2023-04-28T15:36:13.871Z,1.20
2023-04-28T15:38:42.146Z,1.20
2023-04-28T15:41:09.376Z,1.27
2023-04-28T15:43:37.518Z,1.25
2023-04-28T15:46:11.340Z,1.20
2023-04-28T15:48:40.952Z,1.17
2023-04-28T15:51:07.635Z,1.10
2023-04-28T15:53:34.475Z,1.35
2023-04-28T15:56:01.147Z,1.38
2023-04-28T15:58:27.888Z,1.13
2023-04-28T16:00:54.677Z,1.25
2023-04-28T16:03:21.373Z,1.27
2023-04-28T16:05:48.575Z,1.17
2023-04-28T16:08:15.940Z,1.20
2023-04-28T16:10:42.646Z,1.13
2023-04-28T16:13:11.495Z,1.30
2023-04-28T16:15:38.881Z,1.38
2023-04-28T16:18:05.828Z,1.40
2023-04-28T16:20:33.737Z,1.20
2023-04-28T16:23:00.473Z,1.30
2023-04-28T16:25:27.021Z,1.25
2023-04-28T16:27:53.959Z,1.23
2023-04-28T16:30:20.646Z,1.25
2023-04-28T16:32:47.272Z,1.20
2023-04-28T16:35:14.845Z,1.30
2023-04-28T16:37:43.214Z,1.15
2023-04-28T16:40:10.421Z,1.20
2023-04-28T16:42:37.529Z,1.05
2023-04-28T16:45:04.405Z,1.30
2023-04-28T16:47:31.408Z,1.63
2023-04-28T16:49:58.248Z,1.50
2023-04-28T16:52:25.004Z,1.08
2023-04-28T16:54:51.724Z,1.25
2023-04-28T16:57:18.375Z,1.40
2023-04-28T16:59:45.472Z,1.42
2023-04-28T17:02:12.551Z,1.15
2023-04-28T17:04:39.496Z,1.80
2023-04-28T17:07:06.412Z,1.67
2023-04-28T17:09:33.516Z,1.50
2023-04-28T17:12:00.937Z,1.60
2023-04-28T17:14:27.610Z,1.60
2023-04-28T17:16:54.179Z,1.55
2023-04-28T17:19:21.226Z,1.33
2023-04-28T17:21:49.954Z,1.58
2023-04-28T17:24:16.527Z,1.67
2023-04-28T17:26:43.187Z,1.52
2023-04-28T17:29:09.769Z,1.83
2023-04-28T17:31:38.934Z,2.17
2023-04-28T17:34:05.778Z,2.05
2023-04-28T17:36:33.578Z,1.92
2023-04-28T17:39:00.110Z,2.22
2023-04-28T17:41:26.717Z,3.28
2023-04-28T17:43:53.322Z,3.63
2023-04-28T17:46:21.207Z,4.97
2023-04-28T17:48:47.737Z,3.55
2023-04-28T17:51:14.306Z,2.83
2023-04-28T17:53:41.351Z,2.95
2023-04-28T17:56:09.069Z,2.38
2023-04-28T17:58:36.583Z,2.20
2023-04-28T18:01:03.406Z,2.70
2023-04-28T18:03:30.209Z,2.50
2023-04-28T18:05:56.764Z,2.70
2023-04-28T18:08:23.259Z,2.20
2023-04-28T18:10:49.968Z,3.40
2023-04-28T18:13:16.685Z,3.10
2023-04-28T18:15:46.540Z,2.90
2023-04-28T18:18:13.326Z,2.70
2023-04-28T18:20:39.819Z,3.33
2023-04-28T18:23:06.540Z,3.42
2023-04-28T18:25:33.427Z,3.50
2023-04-28T18:27:59.937Z,2.67
2023-04-28T18:30:26.495Z,3.63
2023-04-28T18:32:52.995Z,3.13
2023-04-28T18:35:19.766Z,3.45
2023-04-28T18:37:46.385Z,3.80
2023-04-28T18:40:12.949Z,3.10
2023-04-28T18:42:39.456Z,3.53
2023-04-28T18:45:08.118Z,2.60
2023-04-28T18:47:35.326Z,3.90
2023-04-28T18:50:02.765Z,3.45
2023-04-28T18:52:30.011Z,3.40
2023-04-28T18:54:59.472Z,4.68
2023-04-28T18:57:26.031Z,4.07
2023-04-28T18:59:52.843Z,3.22
2023-04-28T19:02:19.461Z,3.85
2023-04-28T19:04:46.208Z,3.17
2023-04-28T19:07:12.733Z,3.92
2023-04-28T19:09:39.259Z,3.33
2023-04-28T19:12:05.789Z,4.32
2023-04-28T19:14:33.388Z,4.00
2023-04-28T19:17:00.141Z,4.38
2023-04-28T19:19:26.782Z,3.83
2023-04-28T19:21:53.467Z,4.03
2023-04-28T19:24:20.065Z,4.30
2023-04-28T19:26:46.853Z,4.13
2023-04-28T19:29:17.307Z,4.18
2023-04-28T19:31:44.557Z,4.22
2023-04-28T19:34:11.142Z,4.05
2023-04-28T19:36:38.335Z,4.35
2023-04-28T19:39:04.836Z,4.07
2023-04-28T19:41:31.470Z,4.10
2023-04-28T19:43:58.087Z,5.30
2023-04-28T19:46:24.841Z,5.57
2023-04-28T19:48:51.813Z,5.45
2023-04-28T19:51:18.510Z,5.20
2023-04-28T19:53:47.243Z,5.25
2023-04-28T19:56:14.000Z,4.55
2023-04-28T19:58:41.171Z,4.70
2023-04-28T20:01:07.821Z,5.18
2023-04-28T20:03:34.963Z,4.47
2023-04-28T20:06:01.668Z,4.10
2023-04-28T20:08:28.703Z,3.15
2023-04-28T20:10:55.440Z,3.58
2023-04-28T20:13:22.014Z,3.20
2023-04-28T20:15:48.561Z,3.58
2023-04-28T20:18:15.098Z,3.67
2023-04-28T20:20:41.678Z,3.33
2023-04-28T20:23:08.169Z,3.97
2023-04-28T20:25:37.774Z,3.97
2023-04-28T20:28:04.385Z,4.63
2023-04-28T20:30:30.957Z,4.32
2023-04-28T20:32:57.548Z,3.92
2023-04-28T20:35:24.145Z,5.28
2023-04-28T20:37:50.661Z,5.32
2023-04-28T20:40:17.137Z,6.18
2023-04-28T20:42:43.623Z,5.97
2023-04-28T20:45:11.472Z,6.15
2023-04-28T20:47:39.333Z,6.53
2023-04-28T20:50:07.215Z,5.78
2023-04-28T20:52:33.741Z,5.55
2023-04-28T20:55:00.522Z,6.15
2023-04-28T20:57:27.023Z,6.22
2023-04-28T20:59:53.591Z,5.03
2023-04-28T21:02:20.215Z,4.53
2023-04-28T21:04:46.829Z,4.18
2023-04-28T21:07:13.572Z,4.50
2023-04-28T21:09:42.223Z,5.10
2023-04-28T21:12:08.714Z,5.15
2023-04-28T21:14:36.716Z,4.80
2023-04-28T21:17:03.863Z,6.60
2023-04-28T21:19:30.686Z,5.22
2023-04-28T21:21:57.937Z,4.80
2023-04-28T21:24:24.555Z,6.25
2023-04-28T21:26:51.067Z,5.45
2023-04-28T21:29:18.680Z,6.25
2023-04-28T21:31:46.022Z,6.05
2023-04-28T21:34:12.640Z,6.47
2023-04-28T21:36:39.186Z,6.55
2023-04-28T21:39:06.207Z,7.80
2023-04-28T21:41:32.730Z,7.95
2023-04-28T21:43:59.699Z,7.95
2023-04-28T21:46:26.316Z,7.95
2023-04-28T21:48:52.879Z,8.63
2023-04-28T21:51:19.332Z,7.80
2023-04-28T21:53:45.855Z,8.57
2023-04-28T21:56:12.340Z,10.27
2023-04-28T21:58:39.355Z,8.30
2023-04-28T22:01:06.595Z,8.65
2023-04-28T22:03:35.503Z,9.10
2023-04-28T22:06:02.228Z,8.90
2023-04-28T22:08:28.727Z,8.85
2023-04-28T22:10:55.207Z,8.93
2023-04-28T22:13:23.025Z,8.48
2023-04-28T22:15:49.819Z,8.50
2023-04-28T22:18:17.338Z,8.63
2023-04-28T22:20:44.543Z,8.32
2023-04-28T22:23:11.138Z,9.27
2023-04-28T22:25:38.151Z,8.18
2023-04-28T22:28:04.935Z,9.52
2023-04-28T22:30:31.924Z,9.07
2023-04-28T22:32:58.526Z,8.52
2023-04-28T22:35:25.137Z,8.43
2023-04-28T22:37:51.640Z,8.07
2023-04-28T22:40:18.273Z,8.82
2023-04-28T22:42:44.758Z,9.35
2023-04-28T22:45:11.896Z,10.68
2023-04-28T22:47:39.139Z,11.43
2023-04-28T22:50:06.512Z,9.73
2023-04-28T22:52:33.322Z,10.07
2023-04-28T22:54:59.782Z,10.07
2023-04-28T22:57:26.386Z,8.43
2023-04-28T22:59:53.174Z,8.73
2023-04-28T23:02:20.544Z,9.23
2023-04-28T23:04:47.060Z,9.50
2023-04-28T23:07:13.585Z,7.90
2023-04-28T23:09:40.184Z,7.90
2023-04-28T23:12:06.745Z,7.85
2023-04-28T23:14:33.295Z,7.35
2023-04-28T23:16:59.796Z,7.07
2023-04-28T23:19:26.299Z,6.97
2023-04-28T23:21:52.866Z,6.40
2023-04-28T23:24:19.411Z,6.95
2023-04-28T23:26:45.959Z,7.45
2023-04-28T23:29:12.428Z,7.43
2023-04-28T23:31:40.083Z,6.90
2023-04-28T23:34:06.724Z,7.15
2023-04-28T23:36:33.247Z,7.15
2023-04-28T23:38:59.756Z,6.78
2023-04-28T23:41:26.885Z,7.30
2023-04-28T23:43:53.631Z,7.95
2023-04-28T23:46:20.463Z,7.18
2023-04-28T23:48:46.968Z,6.75
2023-04-28T23:51:13.652Z,7.32
2023-04-28T23:53:41.205Z,7.35
2023-04-28T23:56:07.847Z,7.07
2023-04-28T23:58:34.321Z,7.22
